createdAt,value
2018-09-22T00:00:35.137Z,89.60
2018-09-22T00:03:03.625Z,89.10
2018-09-22T00:05:32.094Z,88.50
2018-09-22T00:08:00.520Z,89.40
2018-09-22T00:10:29.062Z,88.40
2018-09-22T00:12:57.533Z,87.90
2018-09-22T00:15:25.913Z,87.70
2018-09-22T00:17:54.382Z,88.40
2018-09-22T00:20:22.789Z,88.30
2018-09-22T00:22:51.278Z,88.60
2018-09-22T00:25:19.721Z,88.50
2018-09-22T00:27:48.421Z,88.90
2018-09-22T00:30:16.793Z,87.90
2018-09-22T00:32:45.236Z,87.80
2018-09-22T00:35:13.665Z,87.80
2018-09-22T00:37:42.081Z,87.50
2018-09-22T00:40:10.520Z,87.40
2018-09-22T00:42:38.932Z,88.30
2018-09-22T00:45:07.421Z,88.10
2018-09-22T00:47:35.941Z,87.70
2018-09-22T00:50:04.415Z,87.60
2018-09-22T00:52:32.905Z,87.40
2018-09-22T00:55:01.355Z,89.10
2018-09-22T00:57:29.849Z,88.90
2018-09-22T00:59:58.329Z,89.90
2018-09-22T01:02:26.820Z,89.60
2018-09-22T01:04:55.207Z,88.70
2018-09-22T01:07:23.662Z,87.90
2018-09-22T01:09:52.168Z,87.70
2018-09-22T01:12:20.588Z,88.40
2018-09-22T01:14:48.962Z,88.70
2018-09-22T01:17:17.385Z,87.30
2018-09-22T01:19:45.793Z,88.30
2018-09-22T01:22:14.404Z,88.00
2018-09-22T01:24:42.788Z,88.90
2018-09-22T01:27:11.196Z,89.00
2018-09-22T01:29:39.633Z,89.20
2018-09-22T01:32:08.008Z,88.20
2018-09-22T01:34:36.443Z,87.90
2018-09-22T01:37:04.899Z,88.30
2018-09-22T01:39:33.328Z,87.60
2018-09-22T01:42:02.188Z,87.90
2018-09-22T01:44:30.585Z,87.50
2018-09-22T01:46:59.016Z,87.30
2018-09-22T01:49:27.503Z,87.70
2018-09-22T01:51:55.928Z,87.90
2018-09-22T01:54:24.281Z,87.90
2018-09-22T01:56:52.717Z,87.90
2018-09-22T01:59:21.191Z,88.20
2018-09-22T02:01:49.705Z,88.60
2018-09-22T02:04:18.340Z,89.00
2018-09-22T02:06:46.824Z,88.30
2018-09-22T02:09:15.268Z,89.10
2018-09-22T02:11:43.697Z,89.00
2018-09-22T02:14:12.426Z,88.70
2018-09-22T02:16:40.825Z,87.20
2018-09-22T02:19:09.381Z,88.60
2018-09-22T02:21:37.804Z,87.90
2018-09-22T02:24:06.551Z,88.60
2018-09-22T02:26:34.919Z,88.30
2018-09-22T02:29:03.517Z,88.30
2018-09-22T02:31:31.898Z,87.70
2018-09-22T02:34:00.401Z,88.20
2018-09-22T02:36:28.936Z,88.30
2018-09-22T02:38:57.311Z,87.40
2018-09-22T02:41:25.860Z,87.90
2018-09-22T02:43:54.382Z,88.10
2018-09-22T02:46:22.834Z,87.40
2018-09-22T02:48:51.304Z,87.30
2018-09-22T02:51:19.733Z,87.80
2018-09-22T02:53:48.158Z,87.80
2018-09-22T02:56:16.535Z,87.60
2018-09-22T02:58:44.986Z,87.80
2018-09-22T03:01:13.420Z,87.80
2018-09-22T03:03:41.858Z,88.30
2018-09-22T03:06:10.362Z,87.00
2018-09-22T03:08:38.748Z,87.90
2018-09-22T03:11:07.157Z,88.80
2018-09-22T03:13:35.577Z,88.70
2018-09-22T03:16:03.970Z,89.20
2018-09-22T03:18:32.350Z,89.00
2018-09-22T03:21:00.791Z,89.10
2018-09-22T03:23:29.208Z,89.20
2018-09-22T03:25:57.599Z,89.60
2018-09-22T03:28:25.985Z,89.70
2018-09-22T03:30:54.401Z,88.60
2018-09-22T03:33:22.885Z,88.70
2018-09-22T03:35:51.309Z,89.50
2018-09-22T03:38:19.801Z,89.30
2018-09-22T03:40:48.207Z,89.70
2018-09-22T03:43:16.712Z,90.00
2018-09-22T03:45:45.129Z,90.10
2018-09-22T03:48:13.610Z,89.70
2018-09-22T03:50:42.020Z,90.10
2018-09-22T03:53:10.602Z,89.90
2018-09-22T03:55:39.054Z,90.00
2018-09-22T03:58:07.430Z,89.90
2018-09-22T04:00:35.863Z,89.60
2018-09-22T04:03:04.391Z,89.70
2018-09-22T04:05:32.895Z,89.70
2018-09-22T04:08:01.373Z,89.70
2018-09-22T04:10:29.751Z,90.10
2018-09-22T04:12:58.140Z,90.10
2018-09-22T04:15:26.609Z,90.00
2018-09-22T04:17:55.544Z,90.00
2018-09-22T04:20:23.996Z,90.00
2018-09-22T04:22:52.477Z,89.80
2018-09-22T04:25:20.921Z,90.10
2018-09-22T04:27:49.339Z,90.00
2018-09-22T04:30:17.785Z,90.20
2018-09-22T04:32:46.154Z,90.20
2018-09-22T04:35:14.643Z,90.10
2018-09-22T04:37:43.049Z,90.10
2018-09-22T04:40:11.534Z,90.00
2018-09-22T04:42:40.089Z,89.90
2018-09-22T04:45:08.741Z,89.30
2018-09-22T04:47:37.185Z,89.90
2018-09-22T04:50:06.026Z,90.00
2018-09-22T04:52:34.501Z,90.00
2018-09-22T04:55:02.916Z,90.40
2018-09-22T04:57:31.744Z,90.10
2018-09-22T05:00:00.264Z,90.00
2018-09-22T05:02:28.708Z,90.00
2018-09-22T05:04:57.161Z,90.10
2018-09-22T05:07:25.651Z,90.10
2018-09-22T05:09:54.051Z,89.20
2018-09-22T05:12:22.850Z,89.70
2018-09-22T05:14:51.307Z,89.70
2018-09-22T05:17:19.764Z,89.40
2018-09-22T05:19:48.195Z,89.80
2018-09-22T05:22:16.660Z,89.10
2018-09-22T05:24:45.257Z,88.20
2018-09-22T05:27:13.749Z,90.00
2018-09-22T05:29:42.153Z,89.70
2018-09-22T05:32:10.535Z,89.50
2018-09-22T05:34:38.936Z,89.30
2018-09-22T05:37:07.457Z,89.60
2018-09-22T05:39:35.881Z,88.50
2018-09-22T05:42:04.290Z,88.40
2018-09-22T05:44:33.570Z,89.20
2018-09-22T05:47:02.642Z,88.60
2018-09-22T05:49:31.016Z,88.40
2018-09-22T05:51:59.417Z,89.60
2018-09-22T05:54:27.838Z,89.60
2018-09-22T05:56:56.219Z,90.00
2018-09-22T05:59:24.648Z,88.90
2018-09-22T06:01:53.023Z,89.50
2018-09-22T06:04:21.394Z,90.00
2018-09-22T06:06:49.888Z,89.70
2018-09-22T06:09:19.752Z,89.60
2018-09-22T06:11:48.659Z,90.00
2018-09-22T06:14:18.141Z,90.10
2018-09-22T06:16:51.858Z,90.00
2018-09-22T06:19:21.417Z,90.00
2018-09-22T06:21:50.367Z,90.20
2018-09-22T06:24:18.875Z,90.00
2018-09-22T06:26:47.364Z,90.20
2018-09-22T06:29:16.505Z,89.80
2018-09-22T06:31:44.886Z,90.20
2018-09-22T06:34:13.310Z,90.30
2018-09-22T06:36:42.059Z,90.20
2018-09-22T06:39:11.583Z,89.80
2018-09-22T06:41:40.211Z,90.30
2018-09-22T06:44:08.765Z,90.00
2018-09-22T06:46:37.211Z,90.10
2018-09-22T06:49:06.300Z,90.10
2018-09-22T06:51:34.719Z,90.30
2018-09-22T06:54:03.194Z,90.10
2018-09-22T06:56:31.653Z,90.30
2018-09-22T06:59:00.119Z,90.30
2018-09-22T07:01:28.550Z,90.00
2018-09-22T07:03:57.013Z,90.20
2018-09-22T07:06:25.506Z,90.30
2018-09-22T07:08:54.109Z,90.30
2018-09-22T07:11:22.580Z,90.50
2018-09-22T07:13:51.280Z,90.40
2018-09-22T07:16:19.685Z,90.60
2018-09-22T07:18:48.089Z,90.30
2018-09-22T07:21:16.531Z,90.60
2018-09-22T07:23:44.983Z,90.30
2018-09-22T07:26:13.441Z,90.40
2018-09-22T07:28:41.846Z,90.10
2018-09-22T07:31:10.493Z,90.20
2018-09-22T07:33:38.928Z,90.00
2018-09-22T07:36:07.426Z,90.00
2018-09-22T07:38:35.860Z,89.60
2018-09-22T07:41:05.365Z,89.10
2018-09-22T07:43:33.763Z,88.70
2018-09-22T07:46:02.348Z,88.70
2018-09-22T07:48:30.753Z,88.80
2018-09-22T07:50:59.325Z,87.90
2018-09-22T07:53:27.798Z,88.00
2018-09-22T07:55:56.338Z,88.20
2018-09-22T07:58:24.777Z,87.50
2018-09-22T08:00:53.275Z,87.40
2018-09-22T08:03:25.278Z,88.00
2018-09-22T08:05:54.107Z,87.10
2018-09-22T08:08:22.670Z,87.20
2018-09-22T08:10:51.227Z,87.50
2018-09-22T08:13:19.728Z,87.50
2018-09-22T08:15:48.498Z,87.20
2018-09-22T08:18:16.950Z,87.30
2018-09-22T08:20:45.416Z,87.10
2018-09-22T08:23:13.877Z,87.90
2018-09-22T08:25:42.356Z,87.20
2018-09-22T08:28:10.769Z,87.30
2018-09-22T08:30:39.313Z,87.70
2018-09-22T08:33:07.708Z,87.30
2018-09-22T08:35:36.501Z,87.40
2018-09-22T08:38:05.052Z,86.70
2018-09-22T08:40:33.518Z,86.30
2018-09-22T08:43:01.991Z,86.50
2018-09-22T08:45:30.458Z,85.70
2018-09-22T08:47:58.889Z,85.40
2018-09-22T08:50:27.430Z,86.90
2018-09-22T08:52:55.834Z,85.90
2018-09-22T08:55:24.381Z,85.80
2018-09-22T08:57:52.943Z,85.20
2018-09-22T09:00:21.494Z,84.60
2018-09-22T09:02:49.882Z,85.00
2018-09-22T09:05:18.522Z,84.00
2018-09-22T09:07:46.956Z,84.00
2018-09-22T09:10:15.425Z,83.70
2018-09-22T09:12:43.901Z,84.20
2018-09-22T09:15:12.362Z,83.70
2018-09-22T09:17:40.835Z,83.20
2018-09-22T09:20:09.355Z,82.50
2018-09-22T09:22:37.770Z,82.90
2018-09-22T09:25:16.240Z,83.10
2018-09-22T09:27:44.625Z,82.50
2018-09-22T09:30:13.142Z,82.60
2018-09-22T09:32:41.574Z,83.40
2018-09-22T09:35:09.981Z,82.60
2018-09-22T09:37:38.414Z,81.60
2018-09-22T09:40:06.925Z,80.90
2018-09-22T09:42:35.246Z,81.70
2018-09-22T09:45:03.718Z,81.30
2018-09-22T09:47:32.222Z,80.10
2018-09-22T09:50:00.729Z,79.60
2018-09-22T09:52:29.267Z,81.30
2018-09-22T09:54:57.736Z,81.00
2018-09-22T09:57:26.169Z,80.70
2018-09-22T09:59:55.597Z,80.60
2018-09-22T10:02:31.305Z,80.00
2018-09-22T10:05:00.057Z,79.70
2018-09-22T10:07:28.658Z,78.90
2018-09-22T10:09:57.133Z,78.90
2018-09-22T10:12:25.535Z,79.50
2018-09-22T10:14:53.976Z,77.60
2018-09-22T10:17:22.753Z,78.50
2018-09-22T10:19:51.162Z,77.00
2018-09-22T10:22:19.569Z,75.60
2018-09-22T10:24:48.018Z,75.10
2018-09-22T10:27:16.422Z,74.20
2018-09-22T10:29:44.842Z,76.60
2018-09-22T10:32:13.285Z,74.30
2018-09-22T10:34:41.769Z,73.10
2018-09-22T10:37:10.217Z,74.50
2018-09-22T10:39:38.703Z,75.60
2018-09-22T10:42:07.064Z,72.80
2018-09-22T10:44:35.439Z,71.30
2018-09-22T10:47:04.093Z,73.80
2018-09-22T10:49:32.484Z,74.40
2018-09-22T10:52:00.917Z,72.70
2018-09-22T10:54:29.361Z,74.40
2018-09-22T10:56:58.100Z,74.10
2018-09-22T10:59:26.966Z,73.70
2018-09-22T11:01:56.969Z,72.50
2018-09-22T11:04:25.325Z,69.00
2018-09-22T11:06:53.696Z,67.30
2018-09-22T11:09:22.162Z,67.90
2018-09-22T11:11:50.620Z,68.10
2018-09-22T11:14:19.113Z,67.40
2018-09-22T11:16:47.560Z,66.50
2018-09-22T11:19:16.027Z,67.00
2018-09-22T11:21:44.436Z,66.90
2018-09-22T11:24:12.882Z,65.90
2018-09-22T11:26:41.305Z,65.10
2018-09-22T11:29:10.117Z,63.20
2018-09-22T11:31:38.505Z,64.90
2018-09-22T11:34:07.216Z,65.30
2018-09-22T11:36:44.559Z,65.50
2018-09-22T11:39:13.639Z,66.20
2018-09-22T11:41:42.027Z,64.80
2018-09-22T11:44:10.506Z,64.70
2018-09-22T11:46:39.048Z,66.00
2018-09-22T11:49:07.617Z,64.80
2018-09-22T11:51:36.115Z,66.20
2018-09-22T11:54:04.569Z,66.20
2018-09-22T11:56:33.118Z,66.90
2018-09-22T11:59:01.475Z,65.80
2018-09-22T12:01:30.051Z,69.50
2018-09-22T12:03:58.694Z,67.90
2018-09-22T12:06:27.647Z,67.10
2018-09-22T12:08:56.124Z,68.30
2018-09-22T12:11:28.314Z,67.90
2018-09-22T12:13:56.745Z,66.30
2018-09-22T12:16:25.218Z,67.30
2018-09-22T12:18:53.672Z,67.80
2018-09-22T12:21:22.212Z,66.80
2018-09-22T12:23:50.717Z,69.10
2018-09-22T12:26:19.166Z,68.80
2018-09-22T12:28:48.454Z,68.00
2018-09-22T12:31:16.925Z,65.70
2018-09-22T12:33:45.418Z,68.80
2018-09-22T12:36:13.875Z,67.80
2018-09-22T12:38:42.394Z,67.20
2018-09-22T12:41:10.919Z,68.90
2018-09-22T12:43:40.162Z,70.70
2018-09-22T12:46:08.839Z,70.40
2018-09-22T12:48:37.279Z,69.90
2018-09-22T12:51:05.823Z,67.00
2018-09-22T12:53:34.365Z,66.90
2018-09-22T12:56:02.857Z,69.10
2018-09-22T12:58:31.369Z,69.80
2018-09-22T13:00:59.821Z,70.00
2018-09-22T13:03:28.221Z,71.00
2018-09-22T13:05:56.681Z,70.70
2018-09-22T13:08:25.160Z,70.80
2018-09-22T13:10:53.714Z,70.00
2018-09-22T13:13:22.167Z,69.90
2018-09-22T13:15:50.614Z,70.90
2018-09-22T13:18:19.083Z,71.60
2018-09-22T13:20:47.537Z,70.10
2018-09-22T13:23:17.505Z,69.60
2018-09-22T13:25:46.309Z,69.70
2018-09-22T13:28:14.988Z,68.40
2018-09-22T13:30:43.524Z,69.60
2018-09-22T13:33:11.982Z,69.00
2018-09-22T13:35:40.393Z,68.70
2018-09-22T13:38:10.321Z,69.00
2018-09-22T13:40:38.795Z,68.90
2018-09-22T13:43:07.362Z,70.90
2018-09-22T13:45:35.947Z,69.10
2018-09-22T13:48:04.537Z,69.00
2018-09-22T13:50:33.204Z,69.80
2018-09-22T13:53:02.672Z,69.80
2018-09-22T13:55:31.193Z,69.60
2018-09-22T13:57:59.706Z,69.50
2018-09-22T14:00:28.273Z,69.90
2018-09-22T14:02:56.742Z,70.00
2018-09-22T14:05:31.065Z,69.50
2018-09-22T14:07:59.665Z,70.00
2018-09-22T14:10:28.104Z,69.80
2018-09-22T14:12:58.989Z,70.60
2018-09-22T14:15:27.689Z,70.50
2018-09-22T14:17:56.386Z,71.10
2018-09-22T14:20:24.928Z,71.60
2018-09-22T14:22:53.362Z,71.20
2018-09-22T14:25:21.865Z,70.30
2018-09-22T14:27:50.368Z,71.10
2018-09-22T14:30:18.918Z,71.30
2018-09-22T14:32:47.627Z,70.50
2018-09-22T14:35:16.410Z,71.00
2018-09-22T14:37:44.929Z,70.30
2018-09-22T14:40:13.523Z,70.20
2018-09-22T14:42:42.090Z,69.00
2018-09-22T14:45:10.620Z,69.60
2018-09-22T14:47:39.293Z,68.80
2018-09-22T14:50:07.874Z,69.80
2018-09-22T14:52:36.488Z,69.10
2018-09-22T14:55:05.337Z,68.90
2018-09-22T14:57:33.781Z,70.20
2018-09-22T15:00:02.531Z,69.60
2018-09-22T15:02:31.372Z,68.40
2018-09-22T15:04:59.834Z,69.60
2018-09-22T15:07:28.479Z,69.40
2018-09-22T15:09:57.032Z,69.90
2018-09-22T15:12:25.522Z,70.40
2018-09-22T15:14:54.017Z,69.20
2018-09-22T15:17:22.439Z,69.70
2018-09-22T15:19:50.906Z,69.00
2018-09-22T15:22:19.407Z,70.00
2018-09-22T15:24:47.913Z,70.70
2018-09-22T15:27:16.392Z,71.80
2018-09-22T15:29:45.007Z,72.70
2018-09-22T15:32:13.783Z,73.30
2018-09-22T15:34:42.383Z,73.40
2018-09-22T15:37:11.273Z,73.50
2018-09-22T15:39:39.786Z,73.90
2018-09-22T15:42:08.521Z,74.20
2018-09-22T15:44:37.964Z,74.60
2018-09-22T15:47:06.720Z,76.00
2018-09-22T15:49:35.801Z,75.60
2018-09-22T15:52:06.679Z,75.70
2018-09-22T15:54:35.150Z,76.20
2018-09-22T15:57:04.223Z,76.70
2018-09-22T15:59:33.224Z,77.00
2018-09-22T16:02:13.732Z,77.40
2018-09-22T16:04:45.261Z,77.60
2018-09-22T16:07:13.848Z,77.40
2018-09-22T16:09:42.379Z,77.60
2018-09-22T16:12:10.787Z,77.60
2018-09-22T16:14:39.314Z,77.70
2018-09-22T16:17:20.212Z,78.60
2018-09-22T16:19:48.762Z,80.30
2018-09-22T16:22:17.272Z,80.10
2018-09-22T16:24:46.651Z,81.50
2018-09-22T16:27:25.252Z,81.10
2018-09-22T16:29:53.956Z,81.80
2018-09-22T16:32:24.671Z,82.60
2018-09-22T16:34:54.812Z,82.20
2018-09-22T16:37:23.419Z,82.30
2018-09-22T16:39:52.163Z,82.20
2018-09-22T16:42:21.818Z,81.80
2018-09-22T16:44:55.844Z,81.90
2018-09-22T16:47:24.866Z,81.90
2018-09-22T16:49:53.857Z,81.70
2018-09-22T16:52:22.863Z,81.70
2018-09-22T16:54:53.208Z,81.90
2018-09-22T16:57:22.432Z,81.80
2018-09-22T16:59:51.185Z,81.80
2018-09-22T17:02:20.153Z,81.60
2018-09-22T17:04:48.841Z,81.70
2018-09-22T17:07:17.329Z,81.90
2018-09-22T17:09:48.225Z,82.00
2018-09-22T17:12:18.072Z,82.10
2018-09-22T17:14:46.841Z,81.90
2018-09-22T17:17:15.678Z,81.90
2018-09-22T17:19:44.541Z,82.40
2018-09-22T17:22:13.285Z,82.20
2018-09-22T17:24:42.142Z,82.70
2018-09-22T17:27:11.571Z,82.90
2018-09-22T17:29:40.455Z,82.80
2018-09-22T17:32:09.812Z,83.20
2018-09-22T17:34:39.667Z,83.80
2018-09-22T17:37:08.438Z,84.80
2018-09-22T17:39:37.520Z,84.60
2018-09-22T17:42:07.578Z,86.30
2018-09-22T17:44:37.046Z,86.80
2018-09-22T17:47:12.768Z,86.80
2018-09-22T17:49:51.888Z,86.60
2018-09-22T17:52:24.375Z,86.30
2018-09-22T17:54:53.215Z,86.10
2018-09-22T17:57:24.151Z,86.70
2018-09-22T17:59:53.921Z,86.60
2018-09-22T18:02:23.426Z,86.90
2018-09-22T18:04:53.159Z,86.40
2018-09-22T18:07:22.358Z,85.70
2018-09-22T18:09:56.333Z,85.90
2018-09-22T18:12:26.977Z,85.90
2018-09-22T18:14:57.522Z,85.90
2018-09-22T18:17:27.906Z,85.50
2018-09-22T18:20:02.684Z,85.30
2018-09-22T18:22:31.677Z,84.90
2018-09-22T18:25:00.690Z,84.80
2018-09-22T18:27:30.051Z,84.90
2018-09-22T18:29:59.080Z,84.70
2018-09-22T18:32:28.093Z,84.90
2018-09-22T18:34:57.430Z,84.20
2018-09-22T18:37:28.460Z,84.70
2018-09-22T18:39:57.350Z,84.50
2018-09-22T18:42:26.332Z,84.20
2018-09-22T18:45:12.246Z,84.00
2018-09-22T18:47:41.656Z,84.60
2018-09-22T18:50:11.330Z,84.20
2018-09-22T18:52:42.617Z,84.60
2018-09-22T18:55:12.044Z,84.50
2018-09-22T18:57:42.322Z,84.60
2018-09-22T19:00:21.154Z,84.20
2018-09-22T19:02:50.143Z,84.30
2018-09-22T19:05:21.127Z,84.20
2018-09-22T19:07:50.126Z,84.50
2018-09-22T19:10:20.394Z,84.50
2018-09-22T19:12:50.251Z,84.40
2018-09-22T19:15:42.933Z,84.60
2018-09-22T19:18:22.552Z,84.50
2018-09-22T19:21:03.197Z,83.50
2018-09-22T19:23:39.337Z,84.20
2018-09-22T19:26:12.808Z,84.70
2018-09-22T19:28:48.174Z,84.60
2018-09-22T19:31:22.825Z,84.30
2018-09-22T19:33:58.798Z,84.50
2018-09-22T19:36:38.679Z,84.80
2018-09-22T19:39:22.537Z,84.80
2018-09-22T19:41:56.234Z,84.70
2018-09-22T19:45:03.656Z,84.80
2018-09-22T19:47:40.183Z,85.10
2018-09-22T19:50:14.219Z,85.10
2018-09-22T19:52:49.148Z,84.90
2018-09-22T19:55:17.978Z,84.70
2018-09-22T19:57:47.440Z,84.50
2018-09-22T20:00:16.267Z,84.90
2018-09-22T20:02:45.147Z,84.40
2018-09-22T20:05:14.214Z,84.70
2018-09-22T20:07:43.222Z,84.80
2018-09-22T20:10:12.951Z,84.00
2018-09-22T20:12:42.422Z,84.50
2018-09-22T20:15:12.137Z,85.10
2018-09-22T20:17:41.486Z,85.30
2018-09-22T20:20:10.641Z,85.10
2018-09-22T20:22:40.686Z,85.20
2018-09-22T20:25:09.547Z,84.90
2018-09-22T20:27:38.830Z,84.70
2018-09-22T20:30:08.214Z,84.00
2018-09-22T20:32:36.940Z,84.30
2018-09-22T20:35:06.376Z,84.20
2018-09-22T20:37:35.184Z,84.20
2018-09-22T20:40:04.066Z,84.20
2018-09-22T20:42:33.056Z,84.00
2018-09-22T20:45:02.516Z,84.00
2018-09-22T20:47:31.348Z,84.10
2018-09-22T20:50:01.419Z,83.70
2018-09-22T20:52:31.307Z,83.70
2018-09-22T20:55:01.722Z,83.50
2018-09-22T20:57:30.579Z,83.10
2018-09-22T20:59:59.485Z,81.80
2018-09-22T21:02:31.088Z,82.70
2018-09-22T21:04:59.909Z,83.10
2018-09-22T21:07:30.042Z,83.60
2018-09-22T21:09:59.204Z,84.90
2018-09-22T21:12:27.894Z,85.80
2018-09-22T21:14:56.814Z,86.10
2018-09-22T21:17:25.601Z,86.80
2018-09-22T21:19:54.731Z,88.10
2018-09-22T21:22:29.684Z,87.60
2018-09-22T21:24:58.900Z,88.30
2018-09-22T21:27:27.543Z,89.00
2018-09-22T21:29:56.166Z,89.10
2018-09-22T21:32:24.933Z,89.00
2018-09-22T21:34:53.437Z,90.00
2018-09-22T21:37:22.838Z,90.00
2018-09-22T21:39:51.318Z,90.30
2018-09-22T21:42:19.778Z,90.30
2018-09-22T21:44:48.481Z,90.70
2018-09-22T21:47:17.021Z,90.10
2018-09-22T21:49:45.477Z,90.30
2018-09-22T21:52:13.979Z,90.50
2018-09-22T21:54:44.298Z,90.60
2018-09-22T21:57:14.861Z,90.80
2018-09-22T21:59:44.320Z,90.70
2018-09-22T22:02:14.248Z,91.40
2018-09-22T22:04:42.697Z,91.10
2018-09-22T22:07:11.245Z,90.90
2018-09-22T22:09:39.718Z,91.00
2018-09-22T22:12:08.246Z,91.60
2018-09-22T22:14:36.727Z,91.40
2018-09-22T22:17:05.210Z,91.80
2018-09-22T22:19:33.621Z,91.70
2018-09-22T22:22:02.168Z,91.50
2018-09-22T22:24:30.581Z,91.60
2018-09-22T22:26:59.075Z,92.00
2018-09-22T22:29:27.566Z,91.40
2018-09-22T22:31:55.997Z,91.40
2018-09-22T22:34:24.521Z,91.50
2018-09-22T22:36:52.989Z,91.30
2018-09-22T22:39:21.386Z,91.80
2018-09-22T22:41:49.856Z,91.50
2018-09-22T22:44:18.434Z,91.50
2018-09-22T22:46:46.985Z,91.70
2018-09-22T22:49:15.490Z,91.60
2018-09-22T22:51:43.993Z,91.80
2018-09-22T22:54:12.580Z,92.30
2018-09-22T22:56:40.952Z,92.10
2018-09-22T22:59:09.434Z,91.70
2018-09-22T23:01:37.829Z,91.90
2018-09-22T23:04:06.676Z,91.70
2018-09-22T23:06:35.188Z,91.90
2018-09-22T23:09:03.785Z,91.80
2018-09-22T23:11:32.245Z,92.10
2018-09-22T23:14:00.667Z,92.40
2018-09-22T23:16:29.241Z,92.30
2018-09-22T23:18:57.688Z,91.90
2018-09-22T23:21:26.254Z,92.30
2018-09-22T23:23:54.617Z,91.90
2018-09-22T23:26:23.041Z,92.50
2018-09-22T23:28:51.406Z,92.10
2018-09-22T23:31:19.805Z,92.10
2018-09-22T23:33:48.328Z,92.00
2018-09-22T23:36:16.918Z,92.10
2018-09-22T23:38:45.364Z,92.10
2018-09-22T23:41:14.166Z,91.70
2018-09-22T23:43:42.554Z,92.20
2018-09-22T23:46:11.026Z,91.80
2018-09-22T23:48:39.456Z,91.90
2018-09-22T23:51:07.965Z,92.00
2018-09-22T23:53:36.737Z,91.90
2018-09-22T23:56:05.074Z,92.60
2018-09-22T23:58:33.500Z,92.30
